aviador You're here:

KEWN Decoded Metar

NEW BERN in NC, USA
Report Time2017-11-25 02:54:00
UTC Time2017-11-25 03:32:07
Flight Rules vfr VFR
WindCalm
Visibility9999 m
Phenomena:N/A
Clouds:N/A
Expected CloudBase > 400 ft AGL from Temp-Dew spread
CeilingNone
Temp07°C (ISA -8)
Dew Point06°C (93% RH)
AAT6.1°C
QNH1015 hPa
Density Alt-892 ft
Elevation10 ft
Report Wrong Elevation
Raw Report
KEWN 250254Z 00000KT 10SM CLR 07/06 A2996 RMK AO2 SLP145 T00720056
56006=

Extra information for KEWN:More info

Metar Taf Metar & Taf Last 4 Metars F.Rules Stats Wind Profile Meteogram Temp Stats Airport Information Weather charts Add Link Nearby VenuesMetar ALERT Operation Metar Decoded Social comments

AIRNAV info for KEWN